Time;durP1;ratioP1;P1;durP2;ratioP2;P2;SDS_P1;SDS_P2;PMS_P1;PMS_P2;Temp;Humidity;BMP_temperature;BMP_pressure;BME280_temperature;BME280_humidity;BME280_pressure;Samples;Min_cycle;Max_cycle;Signal;HPM_P1;HPM_P2
2022/06/07 00:01:34;;;;;;;3.17;1.58;;;18.10;97.60;;;;;;6220039;28;20596;-81
2022/06/07 00:08:36;;;;;;;5.18;1.33;;;17.80;98.30;;;;;;6243511;28;20049;-82
2022/06/07 00:23:43;;;;;;;2.90;1.52;;;17.50;99.40;;;;;;6245529;28;20041;-82
2022/06/07 00:30:14;;;;;;;6.22;1.80;;;17.40;99.50;;;;;;6228987;28;20050;-81
2022/06/07 00:33:29;;;;;;;8.63;2.45;;;17.40;99.70;;;;;;6228175;28;20058;-81
2022/06/07 00:36:39;;;;;;;2.95;2.22;;;17.40;99.70;;;;;;6228865;28;20097;-82
2022/06/07 02:33:52;;;;;;;12.07;1.27;;;17.20;99.80;;;;;;6173812;28;20514;-82
2022/06/07 02:41:30;;;;;;;4.93;1.00;;;17.20;99.70;;;;;;6254686;28;20060;-82
2022/06/07 02:49:05;;;;;;;3.38;1.50;;;17.20;99.70;;;;;;6151474;29;20126;-82
2022/06/07 03:06:42;;;;;;;1.15;0.80;;;17.30;99.90;;;;;;6262250;28;20045;-83
2022/06/07 03:10:26;;;;;;;3.55;0.98;;;17.40;99.60;;;;;;6247018;28;20049;-83
2022/06/07 03:29:58;;;;;;;1.80;1.02;;;17.40;99.70;;;;;;6246868;28;20160;-83
2022/06/07 03:36:11;;;;;;;2.38;0.95;;;17.30;99.70;;;;;;6255060;28;20407;-82
2022/06/07 03:39:13;;;;;;;3.97;1.02;;;17.30;99.70;;;;;;6256712;28;20046;-81
2022/06/07 03:42:14;;;;;;;1.30;0.90;;;17.40;99.50;;;;;;6256331;28;20052;-81
2022/06/07 03:45:16;;;;;;;2.95;1.10;;;17.30;99.40;;;;;;6256498;28;20049;-82
2022/06/07 03:48:18;;;;;;;2.45;1.23;;;17.20;99.40;;;;;;6256585;28;20045;-81
2022/06/07 03:51:23;;;;;;;1.30;1.17;;;17.10;99.60;;;;;;6256796;28;20056;-81
2022/06/07 03:54:25;;;;;;;2.92;0.80;;;17.00;99.70;;;;;;6258155;28;20539;-80
2022/06/07 03:57:27;;;;;;;5.53;1.80;;;16.80;99.90;;;;;;6257744;28;20588;-80
2022/06/07 04:00:29;;;;;;;4.22;1.63;;;16.80;99.90;;;;;;6258057;28;20436;-81
2022/06/07 04:03:30;;;;;;;8.13;1.70;;;16.70;99.90;;;;;;6255801;28;20042;-82
2022/06/07 04:06:35;;;;;;;1.60;1.20;;;16.70;99.90;;;;;;6255565;28;20053;-84
2022/06/07 04:09:39;;;;;;;1.98;1.00;;;16.80;99.90;;;;;;6257887;28;20140;-81
2022/06/07 04:12:41;;;;;;;1.92;1.20;;;16.80;99.90;;;;;;6259177;28;20042;-82
2022/06/07 04:15:43;;;;;;;6.50;1.50;;;17.00;99.90;;;;;;6256741;28;20051;-83
2022/06/07 04:18:44;;;;;;;2.03;1.60;;;17.00;99.90;;;;;;6257207;28;20052;-82
2022/06/07 04:21:47;;;;;;;1.95;1.20;;;17.10;99.90;;;;;;6256313;28;20038;-81
2022/06/07 04:24:49;;;;;;;3.95;1.20;;;17.10;99.80;;;;;;6258853;28;20053;-82
2022/06/07 04:27:51;;;;;;;1.90;1.05;;;17.00;99.80;;;;;;6258325;28;20504;-81
2022/06/07 04:30:53;;;;;;;2.15;1.30;;;17.00;99.90;;;;;;6257018;28;20042;-81
2022/06/07 04:33:57;;;;;;;2.15;1.17;;;17.00;99.90;;;;;;6256058;28;20048;-81
2022/06/07 04:37:00;;;;;;;3.17;1.52;;;17.10;99.90;;;;;;6256357;28;20095;-81
2022/06/07 04:40:02;;;;;;;2.83;1.20;;;17.10;99.80;;;;;;6255750;28;20397;-80
2022/06/07 04:43:04;;;;;;;1.95;1.45;;;17.10;99.80;;;;;;6255488;28;20046;-81
2022/06/07 04:46:08;;;;;;;3.30;1.60;;;17.60;99.90;;;;;;6261905;28;20041;-85
2022/06/07 04:49:10;;;;;;;2.63;0.98;;;19.70;98.00;;;;;;6259307;28;20079;-83
2022/06/07 04:52:13;;;;;;;3.97;0.93;;;22.00;95.10;;;;;;6252198;28;20046;-81
2022/06/07 04:55:16;;;;;;;1.05;0.60;;;24.30;91.20;;;;;;6252383;28;20052;-82
2022/06/07 04:58:17;;;;;;;2.03;0.52;;;26.00;84.70;;;;;;6254390;28;20073;-81
2022/06/07 05:01:21;;;;;;;0.60;0.50;;;27.30;78.20;;;;;;6255487;28;20056;-83
2022/06/07 05:04:23;;;;;;;0.38;0.30;;;28.20;73.20;;;;;;6255005;28;20069;-83
2022/06/07 05:07:26;;;;;;;1.38;0.43;;;29.10;69.20;;;;;;6255514;28;20045;-83
2022/06/07 05:10:28;;;;;;;2.42;0.60;;;29.90;65.40;;;;;;6255978;28;20050;-83
2022/06/07 05:13:31;;;;;;;2.72;0.68;;;30.80;61.70;;;;;;6254968;28;20053;-82
2022/06/07 05:16:38;;;;;;;3.72;0.50;;;32.00;57.80;;;;;;6255852;28;20056;-85
2022/06/07 05:19:39;;;;;;;1.55;0.65;;;33.30;53.40;;;;;;6256419;28;20060;-82
2022/06/07 05:22:42;;;;;;;1.05;0.40;;;34.10;50.10;;;;;;6255594;28;20101;-83
2022/06/07 05:25:53;;;;;;;2.05;0.50;;;34.10;48.80;;;;;;6253879;28;20057;-84
2022/06/07 05:28:55;;;;;;;1.27;0.47;;;33.80;48.80;;;;;;6260871;28;20049;-83
2022/06/07 05:31:57;;;;;;;0.93;0.45;;;33.90;48.30;;;;;;6268593;28;20128;-84
2022/06/07 05:34:59;;;;;;;1.95;0.70;;;33.90;47.70;;;;;;6261737;28;20045;-85
2022/06/07 05:38:02;;;;;;;2.03;0.47;;;34.10;47.30;;;;;;6261383;28;20128;-84
2022/06/07 05:41:04;;;;;;;1.60;0.50;;;34.80;46.40;;;;;;6261720;28;20111;-81
2022/06/07 05:44:07;;;;;;;4.60;0.57;;;36.20;44.50;;;;;;6256549;28;20136;-84
2022/06/07 05:47:09;;;;;;;3.70;0.77;;;37.40;42.70;;;;;;6264176;28;20050;-85
2022/06/07 05:50:11;;;;;;;1.95;0.60;;;36.10;42.70;;;;;;6263278;28;20397;-85
2022/06/07 05:53:14;;;;;;;3.05;1.02;;;35.30;44.60;;;;;;6264015;28;20059;-83
2022/06/07 05:56:16;;;;;;;1.23;0.70;;;36.50;42.80;;;;;;6264222;28;20057;-83
2022/06/07 05:59:18;;;;;;;2.47;1.25;;;37.50;40.40;;;;;;6266320;28;20053;-84
2022/06/07 06:02:20;;;;;;;3.25;0.60;;;37.50;40.00;;;;;;6265753;28;20045;-84
2022/06/07 06:05:21;;;;;;;1.20;0.50;;;37.30;40.10;;;;;;6265438;28;20053;-85
2022/06/07 06:11:45;;;;;;;0.88;0.30;;;38.80;37.60;;;;;;6263832;28;20094;-84
2022/06/07 06:14:48;;;;;;;2.88;0.70;;;38.30;38.10;;;;;;6263634;28;20045;-83
2022/06/07 06:17:50;;;;;;;1.27;0.40;;;36.80;39.30;;;;;;6263576;28;20049;-86
2022/06/07 06:20:53;;;;;;;2.47;0.50;;;35.50;41.10;;;;;;6262414;28;20091;-84
2022/06/07 06:23:59;;;;;;;1.05;0.50;;;34.00;43.00;;;;;;6260802;28;20049;-83
2022/06/07 06:27:01;;;;;;;4.35;0.40;;;32.60;45.60;;;;;;6259111;28;20052;-81
2022/06/07 06:30:03;;;;;;;4.43;0.52;;;30.80;48.80;;;;;;6260424;28;20521;-83
2022/06/07 06:33:05;;;;;;;1.15;0.70;;;29.10;52.70;;;;;;6263999;28;20050;-84
2022/06/07 06:36:09;;;;;;;0.57;0.35;;;28.10;55.70;;;;;;6264052;28;20460;-85
2022/06/07 06:39:12;;;;;;;2.90;0.47;;;27.50;58.40;;;;;;6263985;28;20045;-82
2022/06/07 06:42:14;;;;;;;1.40;0.73;;;28.80;55.80;;;;;;6263838;28;20121;-83
2022/06/07 06:45:24;;;;;;;0.70;0.50;;;28.70;55.50;;;;;;6257487;28;20053;-81
2022/06/07 06:48:27;;;;;;;1.48;0.73;;;29.10;54.70;;;;;;6248483;28;20033;-80
2022/06/07 06:51:30;;;;;;;7.07;0.82;;;28.20;55.70;;;;;;6256206;28;20456;-84
2022/06/07 06:54:34;;;;;;;3.97;0.75;;;27.10;59.00;;;;;;6257083;28;20045;-79
2022/06/07 06:57:36;;;;;;;3.65;0.70;;;26.80;60.40;;;;;;6253110;28;20076;-82
2022/06/07 07:00:45;;;;;;;0.80;0.45;;;27.30;60.70;;;;;;6253216;28;20500;-86
2022/06/07 07:03:47;;;;;;;3.70;0.90;;;29.50;56.90;;;;;;6254521;28;20046;-84
2022/06/07 07:06:49;;;;;;;3.13;0.50;;;32.00;51.30;;;;;;6254860;28;20045;-83
2022/06/07 07:09:55;;;;;;;1.80;0.28;;;33.50;47.80;;;;;;6252614;28;20049;-83
2022/06/07 07:12:57;;;;;;;1.60;0.60;;;34.90;45.30;;;;;;6255327;28;20572;-85
2022/06/07 07:15:59;;;;;;;3.70;0.40;;;36.00;42.90;;;;;;6253033;28;20049;-83
2022/06/07 07:19:03;;;;;;;1.13;0.50;;;36.10;41.40;;;;;;6241435;28;20049;-82
2022/06/07 07:22:05;;;;;;;1.02;0.50;;;34.10;43.10;;;;;;6254538;28;20052;-83
2022/06/07 07:25:09;;;;;;;0.50;0.50;;;32.20;47.20;;;;;;6252772;28;20060;-82
2022/06/07 07:28:11;;;;;;;3.38;0.77;;;31.50;49.00;;;;;;6253846;28;20064;-84
2022/06/07 07:31:16;;;;;;;1.33;0.60;;;32.10;47.70;;;;;;6254158;28;20045;-86
2022/06/07 07:34:18;;;;;;;4.25;0.70;;;32.60;46.30;;;;;;6255897;28;20045;-81
2022/06/07 07:37:20;;;;;;;2.35;0.63;;;32.40;47.10;;;;;;6253920;28;20049;-83
2022/06/07 07:40:23;;;;;;;1.85;0.57;;;32.10;47.70;;;;;;6253719;28;21528;-85
2022/06/07 07:43:25;;;;;;;1.45;0.88;;;32.90;47.00;;;;;;6246959;28;20049;-86
2022/06/07 07:46:29;;;;;;;5.70;0.82;;;33.20;45.30;;;;;;6230533;28;20052;-86
2022/06/07 07:49:32;;;;;;;2.15;0.57;;;32.30;46.60;;;;;;6246036;28;20484;-85
2022/06/07 07:52:36;;;;;;;0.85;0.50;;;31.70;46.90;;;;;;6252868;28;20075;-86
2022/06/07 07:55:45;;;;;;;2.40;0.55;;;31.10;48.50;;;;;;6252582;28;20056;-85
2022/06/07 07:58:46;;;;;;;7.78;0.75;;;31.50;48.20;;;;;;6252671;28;20053;-84
2022/06/07 08:01:49;;;;;;;0.90;0.50;;;31.80;46.90;;;;;;6252434;28;20052;-86
2022/06/07 08:04:51;;;;;;;2.47;0.50;;;31.30;48.20;;;;;;6253391;28;20056;-85
2022/06/07 08:07:53;;;;;;;0.82;0.50;;;30.60;48.90;;;;;;6252720;28;20104;-84
2022/06/07 08:10:56;;;;;;;1.88;0.88;;;30.80;49.90;;;;;;6254371;28;20127;-85
2022/06/07 08:13:58;;;;;;;3.58;0.82;;;31.30;47.80;;;;;;6255015;28;20045;-86
2022/06/07 08:17:01;;;;;;;2.63;0.73;;;31.00;48.80;;;;;;6256003;28;20046;-86
2022/06/07 08:20:03;;;;;;;2.05;0.93;;;31.20;48.70;;;;;;6247126;28;20056;-85
2022/06/07 08:23:07;;;;;;;3.80;1.48;;;31.20;49.00;;;;;;6252773;28;20060;-84
2022/06/07 08:26:10;;;;;;;3.00;0.80;;;30.30;49.50;;;;;;6253152;28;20049;-85
2022/06/07 08:29:12;;;;;;;3.13;0.73;;;29.20;52.00;;;;;;6255621;28;20049;-84
2022/06/07 08:32:14;;;;;;;2.05;0.90;;;28.30;54.10;;;;;;6252411;28;20060;-82
2022/06/07 08:38:37;;;;;;;1.75;0.77;;;27.60;56.60;;;;;;6249287;28;20041;-82
2022/06/07 08:41:46;;;;;;;3.60;0.55;;;28.10;55.70;;;;;;6249996;28;20045;-82
2022/06/07 08:44:51;;;;;;;5.32;0.40;;;29.00;52.20;;;;;;6250667;28;20049;-84
2022/06/07 08:47:57;;;;;;;1.08;0.60;;;30.10;50.50;;;;;;6247602;28;20045;-83
2022/06/07 08:51:12;;;;;;;2.05;0.40;;;32.10;47.90;;;;;;6249613;28;20053;-83
2022/06/07 08:54:18;;;;;;;1.83;0.63;;;34.40;43.70;;;;;;6249561;28;20056;-84
2022/06/07 08:57:24;;;;;;;0.88;0.45;;;36.50;41.30;;;;;;6250146;28;20056;-84
2022/06/07 09:00:28;;;;;;;2.05;0.52;;;37.10;37.00;;;;;;6249999;28;20053;-85
2022/06/07 09:03:49;;;;;;;1.92;0.55;;;36.40;38.00;;;;;;6250245;28;20052;-81
2022/06/07 09:06:55;;;;;;;4.93;0.60;;;37.20;37.80;;;;;;6250347;28;20049;-84
2022/06/07 09:13:21;;;;;;;3.78;0.40;;;38.00;35.60;;;;;;6248839;28;20050;-82
2022/06/07 09:16:23;;;;;;;1.88;0.40;;;36.30;36.40;;;;;;6249824;28;20050;-85
2022/06/07 09:19:27;;;;;;;3.40;0.45;;;34.40;39.00;;;;;;6240243;28;20048;-82
2022/06/07 09:22:40;;;;;;;3.58;0.50;;;33.90;40.40;;;;;;6249033;28;20424;-78
2022/06/07 09:25:48;;;;;;;0.40;0.30;;;35.20;39.30;;;;;;6248945;28;20076;-78
2022/06/07 09:29:03;;;;;;;0.88;0.30;;;36.40;37.90;;;;;;6249082;28;20050;-81
2022/06/07 09:32:12;;;;;;;2.58;0.30;;;37.00;37.20;;;;;;6247900;28;20049;-80
2022/06/07 09:35:21;;;;;;;4.32;0.47;;;37.30;36.80;;;;;;6250049;28;20049;-81
2022/06/07 09:38:32;;;;;;;1.85;0.40;;;37.40;34.80;;;;;;6251513;28;20412;-82
2022/06/07 09:41:39;;;;;;;1.15;0.30;;;36.80;35.30;;;;;;6251119;28;20053;-81
2022/06/07 09:44:57;;;;;;;0.73;0.30;;;35.60;36.00;;;;;;6250920;28;20571;-83
2022/06/07 09:48:05;;;;;;;0.60;0.40;;;35.70;36.80;;;;;;6250211;28;20045;-83
2022/06/07 09:51:14;;;;;;;3.47;0.70;;;35.20;37.00;;;;;;6250246;28;20052;-85
2022/06/07 09:54:19;;;;;;;1.83;0.50;;;33.70;37.80;;;;;;6249583;28;20052;-80
2022/06/07 09:57:32;;;;;;;2.88;0.50;;;32.70;39.50;;;;;;6244635;28;20042;-84
2022/06/07 10:00:43;;;;;;;1.00;0.70;;;32.20;40.50;;;;;;6250570;28;20046;-85
2022/06/07 10:03:51;;;;;;;4.05;0.80;;;31.60;41.80;;;;;;6250783;28;20148;-85
2022/06/07 10:06:57;;;;;;;8.85;1.88;;;31.20;43.00;;;;;;6249260;28;20140;-82
2022/06/07 10:10:05;;;;;;;1.63;0.70;;;31.30;42.40;;;;;;6237933;28;20497;-82
2022/06/07 10:13:21;;;;;;;1.98;0.63;;;30.70;43.60;;;;;;6250704;28;20412;-83
2022/06/07 10:16:32;;;;;;;1.25;0.68;;;30.00;45.60;;;;;;6249980;28;20440;-83
2022/06/07 10:19:44;;;;;;;4.22;1.20;;;29.40;47.00;;;;;;6250144;28;20037;-86
2022/06/07 10:23:09;;;;;;;2.95;0.35;;;28.90;48.40;;;;;;6250648;28;20076;-83
2022/06/07 10:26:22;;;;;;;3.13;0.52;;;28.50;47.50;;;;;;6250738;28;20044;-85
2022/06/07 10:29:49;;;;;;;1.85;0.60;;;28.30;47.40;;;;;;6251604;28;20046;-83
2022/06/07 10:33:33;;;;;;;2.35;1.02;;;28.10;48.20;;;;;;6255372;28;20678;-82
2022/06/07 10:36:43;;;;;;;2.95;0.70;;;27.90;49.20;;;;;;6255555;28;20056;-85
2022/06/07 10:39:56;;;;;;;2.80;0.70;;;27.80;50.10;;;;;;6254348;28;20045;-84
2022/06/07 10:43:02;;;;;;;3.63;1.35;;;27.50;51.60;;;;;;6255799;28;20540;-85
2022/06/07 10:46:09;;;;;;;2.90;0.80;;;27.20;52.10;;;;;;6256074;28;20513;-83
2022/06/07 10:49:19;;;;;;;2.13;0.70;;;27.00;52.90;;;;;;6255533;28;20045;-84
2022/06/07 10:52:31;;;;;;;2.28;0.50;;;27.10;53.30;;;;;;6230597;28;20083;-84
2022/06/07 10:55:37;;;;;;;9.32;0.90;;;27.30;52.80;;;;;;6232584;28;20137;-84
2022/06/07 10:58:40;;;;;;;0.88;0.45;;;27.70;51.40;;;;;;6231474;28;20414;-84
2022/06/07 11:01:48;;;;;;;1.95;0.30;;;27.80;50.60;;;;;;6232629;28;20100;-84
2022/06/07 11:11:46;;;;;;;1.30;0.77;;;27.70;50.30;;;;;;6253485;28;20048;-84
2022/06/07 11:15:02;;;;;;;2.72;0.50;;;27.70;50.90;;;;;;6258659;28;20052;-85
2022/06/07 11:18:08;;;;;;;1.00;0.47;;;27.80;50.90;;;;;;6255854;28;20100;-85
2022/06/07 11:21:21;;;;;;;4.50;0.95;;;28.00;50.90;;;;;;6259307;28;20103;-83
2022/06/07 11:24:28;;;;;;;2.83;0.50;;;28.00;50.70;;;;;;6259558;28;20501;-83
2022/06/07 11:27:31;;;;;;;1.90;0.60;;;28.30;50.10;;;;;;6258507;28;20100;-83
2022/06/07 11:30:45;;;;;;;1.63;0.65;;;28.30;49.70;;;;;;6258052;28;20053;-85
2022/06/07 11:34:11;;;;;;;0.80;0.55;;;28.40;49.80;;;;;;6258700;28;20484;-85
2022/06/07 11:37:33;;;;;;;6.70;0.98;;;28.70;50.40;;;;;;6257794;28;20588;-86
2022/06/07 11:40:35;;;;;;;6.18;1.50;;;29.00;50.20;;;;;;6254525;28;20041;-82
2022/06/07 11:44:00;;;;;;;3.33;0.50;;;29.20;47.40;;;;;;6252573;28;20057;-84
2022/06/07 11:47:19;;;;;;;3.88;0.73;;;28.80;47.70;;;;;;6252498;28;20053;-84
2022/06/07 11:50:31;;;;;;;2.95;0.80;;;28.30;48.90;;;;;;6252891;28;20436;-82
2022/06/07 11:53:38;;;;;;;1.00;0.63;;;27.80;49.90;;;;;;6252243;28;20092;-83
2022/06/07 11:56:44;;;;;;;3.55;0.60;;;27.90;50.40;;;;;;6254580;28;20056;-82
2022/06/07 11:59:48;;;;;;;1.08;0.57;;;28.20;50.20;;;;;;6253482;28;20055;-85
2022/06/07 12:03:13;;;;;;;1.83;0.85;;;28.50;49.30;;;;;;6252012;28;20045;-83
2022/06/07 12:06:21;;;;;;;7.65;0.98;;;28.70;49.40;;;;;;6255350;28;20060;-86
2022/06/07 12:09:25;;;;;;;1.85;0.93;;;28.80;49.20;;;;;;6258476;28;20108;-84
2022/06/07 12:12:31;;;;;;;3.72;1.15;;;28.90;49.10;;;;;;6252802;28;20046;-84
2022/06/07 12:15:40;;;;;;;4.25;0.60;;;29.00;49.30;;;;;;6257076;28;20050;-84
2022/06/07 12:18:52;;;;;;;1.20;0.50;;;29.40;48.90;;;;;;6251670;28;20053;-85
2022/06/07 12:21:59;;;;;;;1.60;0.63;;;29.60;46.80;;;;;;6260573;28;20050;-83
2022/06/07 12:25:16;;;;;;;2.15;0.85;;;29.40;47.30;;;;;;6272148;28;20128;-85
2022/06/07 12:28:23;;;;;;;2.47;1.02;;;29.30;48.20;;;;;;6253101;28;20048;-82
2022/06/07 12:31:33;;;;;;;0.63;0.50;;;29.40;48.40;;;;;;6253516;28;20137;-84
2022/06/07 12:34:37;;;;;;;1.73;0.93;;;29.60;48.80;;;;;;6253784;28;20049;-85
2022/06/07 12:37:39;;;;;;;2.78;1.45;;;30.10;48.10;;;;;;6253908;28;20045;-84
2022/06/07 12:40:52;;;;;;;7.57;0.90;;;30.40;47.40;;;;;;6254478;28;20041;-85
2022/06/07 12:43:56;;;;;;;2.58;0.60;;;30.70;47.70;;;;;;6252621;28;20080;-85
2022/06/07 12:47:00;;;;;;;5.82;0.60;;;31.00;46.90;;;;;;6253835;28;20571;-85
2022/06/07 12:50:02;;;;;;;2.67;0.82;;;31.00;46.50;;;;;;6252489;28;20115;-84
2022/06/07 12:53:06;;;;;;;0.80;0.45;;;31.20;46.60;;;;;;6254624;28;20049;-82
2022/06/07 12:56:15;;;;;;;1.58;0.60;;;31.50;45.40;;;;;;6254315;28;20045;-87
2022/06/07 12:59:22;;;;;;;3.20;0.30;;;31.50;44.20;;;;;;6229728;28;20683;-85
2022/06/07 13:02:32;;;;;;;2.75;0.50;;;31.30;43.50;;;;;;6231008;28;20080;-85
2022/06/07 13:05:37;;;;;;;2.70;0.65;;;31.30;45.20;;;;;;6227344;28;20132;-82
2022/06/07 13:08:40;;;;;;;1.85;0.30;;;31.40;45.40;;;;;;6246720;28;20107;-82
2022/06/07 13:11:43;;;;;;;1.38;0.20;;;31.60;44.40;;;;;;6248419;28;20056;-82
2022/06/07 13:14:45;;;;;;;1.95;0.40;;;31.70;44.70;;;;;;6226160;28;20711;-82
2022/06/07 13:17:58;;;;;;;0.22;0.20;;;31.70;44.90;;;;;;6229646;28;20050;-85
2022/06/07 13:21:16;;;;;;;1.25;0.32;;;31.50;44.90;;;;;;6249397;28;20547;-85
2022/06/07 13:24:21;;;;;;;1.47;0.40;;;31.30;45.20;;;;;;6247445;28;20179;-85
2022/06/07 13:27:41;;;;;;;2.17;0.60;;;31.00;44.20;;;;;;6247730;28;20168;-83
2022/06/07 13:30:44;;;;;;;0.88;0.40;;;30.60;44.20;;;;;;6249214;28;20049;-85
2022/06/07 13:34:00;;;;;;;0.60;0.30;;;30.50;45.20;;;;;;6250135;28;20107;-84
2022/06/07 13:37:19;;;;;;;3.40;0.65;;;30.40;45.30;;;;;;6251589;28;20087;-84
2022/06/07 13:40:28;;;;;;;7.22;0.47;;;30.40;45.40;;;;;;6247795;28;20112;-83
2022/06/07 13:43:32;;;;;;;4.05;0.70;;;30.30;46.50;;;;;;6249547;28;20053;-85
2022/06/07 13:46:37;;;;;;;2.97;0.60;;;30.40;46.50;;;;;;6248625;28;20055;-82
2022/06/07 13:56:23;;;;;;;0.90;0.20;;;30.60;45.50;;;;;;6248609;28;20041;-86
2022/06/07 13:59:26;;;;;;;0.90;0.28;;;30.60;44.90;;;;;;6246456;28;20052;-84
2022/06/07 14:02:28;;;;;;;0.45;0.20;;;30.70;45.40;;;;;;6246669;28;20133;-83
2022/06/07 14:05:32;;;;;;;0.50;0.20;;;30.60;45.40;;;;;;6247324;28;20132;-85
2022/06/07 14:08:34;;;;;;;0.75;0.25;;;30.60;45.40;;;;;;6251952;28;20049;-85
2022/06/07 14:11:36;;;;;;;2.10;1.13;;;30.50;45.60;;;;;;6252108;28;20134;-84
2022/06/07 14:14:39;;;;;;;0.45;0.30;;;30.60;45.20;;;;;;6245424;28;20077;-83
2022/06/07 14:17:43;;;;;;;1.65;0.50;;;30.60;45.10;;;;;;6248673;28;20481;-84
2022/06/07 14:20:47;;;;;;;1.50;0.32;;;30.60;45.60;;;;;;6248894;28;20061;-83
2022/06/07 14:23:49;;;;;;;2.88;0.40;;;30.70;45.80;;;;;;6251993;28;20045;-83
2022/06/07 14:26:53;;;;;;;1.02;0.20;;;31.10;45.60;;;;;;6251746;28;20061;-83
2022/06/07 14:29:57;;;;;;;3.92;0.40;;;31.30;45.60;;;;;;6252697;28;20052;-84
2022/06/07 14:33:03;;;;;;;2.60;0.68;;;31.30;44.10;;;;;;6252185;28;20139;-84
2022/06/07 14:36:05;;;;;;;1.77;0.38;;;31.20;44.30;;;;;;6251614;28;20551;-83
2022/06/07 14:39:07;;;;;;;1.48;0.30;;;31.20;44.60;;;;;;6251207;28;20128;-83
2022/06/07 14:42:09;;;;;;;1.10;0.30;;;30.90;44.00;;;;;;6251497;28;20065;-83
2022/06/07 14:45:13;;;;;;;0.77;0.30;;;30.40;44.60;;;;;;6252866;28;20049;-83
2022/06/07 14:48:28;;;;;;;1.42;0.40;;;30.00;46.30;;;;;;6249234;28;20180;-84
2022/06/07 14:51:35;;;;;;;5.45;0.70;;;29.80;45.90;;;;;;6251013;28;20087;-81
2022/06/07 14:54:37;;;;;;;;;;;29.80;46.20;;;;;;6251559;28;20064;-81
2022/06/07 14:57:42;;;;;;;2.33;0.17;;;29.60;46.30;;;;;;6250996;28;20098;-83
2022/06/07 15:00:47;;;;;;;1.35;0.40;;;29.50;47.00;;;;;;6252218;28;20053;-81
2022/06/07 15:03:50;;;;;;;2.88;0.68;;;29.20;47.80;;;;;;6250934;28;20046;-83
2022/06/07 15:06:52;;;;;;;1.13;0.50;;;28.80;48.60;;;;;;6251862;28;20051;-80
2022/06/07 15:09:54;;;;;;;7.45;1.05;;;28.40;49.60;;;;;;6251185;28;20099;-82
2022/06/07 15:12:56;;;;;;;2.17;1.20;;;27.80;50.90;;;;;;6253593;28;20045;-81
2022/06/07 15:16:03;;;;;;;1.48;0.60;;;27.40;52.00;;;;;;6238582;28;20132;-81
2022/06/07 15:19:08;;;;;;;2.80;0.63;;;27.00;54.30;;;;;;6242007;28;20176;-81
2022/06/07 15:22:12;;;;;;;8.95;0.82;;;26.40;55.90;;;;;;6251504;28;20037;-81
2022/06/07 15:25:16;;;;;;;1.05;0.40;;;25.90;65.40;;;;;;6252203;28;20053;-81
2022/06/07 15:28:19;;;;;;;1.48;0.43;;;25.00;69.90;;;;;;6250931;28;20124;-80
2022/06/07 15:31:26;;;;;;;2.40;0.32;;;24.10;73.90;;;;;;6251516;28;20132;-83
2022/06/07 15:34:29;;;;;;;3.50;0.40;;;23.10;78.00;;;;;;6242464;28;20056;-83
2022/06/07 15:37:32;;;;;;;0.70;0.40;;;22.50;81.90;;;;;;6226988;28;20133;-82
2022/06/07 15:40:35;;;;;;;4.18;0.38;;;22.10;86.10;;;;;;6229861;28;20088;-82
2022/06/07 15:43:37;;;;;;;3.75;0.57;;;21.90;89.10;;;;;;6227552;28;20050;-84
2022/06/07 15:46:41;;;;;;;0.65;0.32;;;21.70;90.40;;;;;;6227568;28;20131;-83
2022/06/07 15:49:43;;;;;;;2.40;0.30;;;21.50;90.80;;;;;;6247307;28;20120;-82
2022/06/07 15:52:46;;;;;;;4.05;0.57;;;21.40;91.60;;;;;;6252908;28;20045;-84
2022/06/07 15:55:49;;;;;;;3.47;1.02;;;21.10;92.30;;;;;;6252136;28;20401;-84
2022/06/07 15:59:06;;;;;;;3.80;0.55;;;21.00;93.40;;;;;;6251092;28;20049;-82
2022/06/07 16:02:10;;;;;;;3.00;0.50;;;20.80;93.90;;;;;;6252045;28;20049;-85
2022/06/07 16:05:14;;;;;;;1.85;0.68;;;20.60;94.80;;;;;;6252514;28;20055;-82
2022/06/07 16:08:18;;;;;;;3.30;0.40;;;20.50;95.40;;;;;;6249879;28;20119;-81
2022/06/07 16:11:20;;;;;;;4.93;0.75;;;20.40;95.90;;;;;;6254146;28;20172;-85
2022/06/07 16:14:22;;;;;;;0.70;0.60;;;20.30;96.40;;;;;;6252020;28;20461;-80
2022/06/07 16:17:25;;;;;;;2.67;0.68;;;20.40;96.90;;;;;;6249849;28;20084;-82
2022/06/07 16:20:27;;;;;;;1.60;0.60;;;20.40;97.30;;;;;;6249626;28;20050;-83
2022/06/07 16:23:30;;;;;;;3.67;0.85;;;20.60;97.30;;;;;;6250959;28;20054;-82
2022/06/07 16:26:32;;;;;;;2.20;0.40;;;20.80;97.70;;;;;;6250883;28;20049;-82
2022/06/07 16:36:16;;;;;;;0.82;0.20;;;21.00;96.90;;;;;;6226666;28;20424;-83
2022/06/07 16:39:19;;;;;;;1.52;0.20;;;21.30;96.70;;;;;;6227243;28;20049;-83
2022/06/07 16:42:21;;;;;;;0.57;0.20;;;21.60;95.80;;;;;;6226511;28;20556;-82
2022/06/07 16:45:23;;;;;;;1.02;0.50;;;21.80;95.60;;;;;;6227524;28;20052;-83
2022/06/07 16:48:26;;;;;;;3.70;0.75;;;22.10;94.80;;;;;;6239319;28;20041;-83
2022/06/07 16:51:28;;;;;;;4.38;1.60;;;22.30;94.20;;;;;;6253243;28;20147;-85
2022/06/07 16:54:31;;;;;;;1.23;0.25;;;22.50;93.70;;;;;;6252719;28;20109;-86
2022/06/07 16:57:33;;;;;;;2.65;0.70;;;22.60;93.60;;;;;;6253120;28;20049;-82
2022/06/07 17:00:35;;;;;;;0.57;0.38;;;22.60;93.20;;;;;;6246905;28;20406;-82
2022/06/07 17:03:39;;;;;;;4.22;1.10;;;22.50;93.10;;;;;;6229213;28;20056;-84
2022/06/07 17:06:42;;;;;;;1.42;0.43;;;22.40;93.40;;;;;;6227642;28;20045;-83
2022/06/07 17:09:44;;;;;;;2.60;0.80;;;22.40;93.70;;;;;;6227972;28;20050;-82
2022/06/07 17:12:46;;;;;;;0.45;0.28;;;22.50;93.80;;;;;;6229840;28;20137;-83
2022/06/07 17:15:49;;;;;;;1.65;0.30;;;22.50;93.50;;;;;;6233110;28;20053;-83
2022/06/07 17:18:54;;;;;;;0.43;0.22;;;22.70;93.20;;;;;;6250870;28;20048;-84
2022/06/07 17:21:56;;;;;;;0.90;0.40;;;22.80;93.40;;;;;;6253445;28;20052;-85
2022/06/07 17:24:58;;;;;;;1.45;0.22;;;22.80;93.20;;;;;;6255382;28;20046;-83
2022/06/07 17:28:00;;;;;;;2.75;0.38;;;23.00;93.40;;;;;;6254616;28;20052;-82
2022/06/07 17:31:03;;;;;;;1.92;0.50;;;23.10;93.00;;;;;;6250771;28;20068;-83
2022/06/07 17:34:07;;;;;;;1.92;0.60;;;23.20;92.80;;;;;;6249193;28;20149;-83
2022/06/07 17:37:09;;;;;;;5.80;0.82;;;23.00;92.80;;;;;;6252171;28;20103;-81
2022/06/07 17:40:16;;;;;;;1.30;0.40;;;22.80;93.20;;;;;;6249319;28;20048;-82
2022/06/07 17:43:18;;;;;;;1.55;0.68;;;22.60;93.60;;;;;;6254468;28;20050;-84
2022/06/07 17:46:20;;;;;;;2.75;0.82;;;22.30;94.00;;;;;;6256170;28;20095;-85
2022/06/07 17:49:23;;;;;;;1.02;0.60;;;22.30;94.30;;;;;;6255577;28;20055;-84
2022/06/07 17:52:26;;;;;;;1.52;0.60;;;22.00;94.50;;;;;;6254484;28;20077;-85
2022/06/07 17:55:31;;;;;;;1.58;0.63;;;21.80;94.70;;;;;;6256860;28;20119;-86
2022/06/07 17:58:34;;;;;;;2.83;0.40;;;21.70;95.10;;;;;;6257259;28;20049;-86
2022/06/07 18:01:36;;;;;;;0.77;0.40;;;21.60;94.90;;;;;;6229907;28;20053;-85
2022/06/07 18:04:40;;;;;;;0.73;0.60;;;21.60;94.90;;;;;;6229437;28;20046;-82
2022/06/07 18:07:43;;;;;;;1.63;0.30;;;21.50;95.00;;;;;;6229575;28;20045;-85
2022/06/07 18:10:46;;;;;;;0.93;0.68;;;21.50;95.10;;;;;;6228957;28;20056;-83
2022/06/07 18:13:49;;;;;;;0.60;0.25;;;21.60;94.90;;;;;;6233895;28;20049;-84
2022/06/07 18:16:51;;;;;;;2.47;0.50;;;21.60;94.90;;;;;;6232573;28;20390;-84
2022/06/07 18:19:54;;;;;;;0.57;0.43;;;21.60;94.70;;;;;;6249625;28;20057;-85
2022/06/07 18:22:56;;;;;;;1.05;0.40;;;21.50;94.60;;;;;;6255449;28;20447;-85
2022/06/07 18:25:59;;;;;;;2.83;0.73;;;21.40;94.70;;;;;;6254113;28;20048;-83
2022/06/07 18:29:10;;;;;;;0.47;0.30;;;21.20;94.80;;;;;;6253103;28;20140;-82
2022/06/07 18:32:18;;;;;;;3.25;1.15;;;21.20;95.00;;;;;;6254952;28;20500;-88
2022/06/07 18:35:24;;;;;;;2.38;0.50;;;21.20;95.00;;;;;;6254737;28;20045;-84
2022/06/07 18:38:26;;;;;;;1.42;0.55;;;21.10;95.00;;;;;;6252241;28;20119;-82
2022/06/07 18:41:29;;;;;;;1.45;0.82;;;21.00;95.00;;;;;;6252627;28;20060;-83
2022/06/07 18:44:31;;;;;;;2.60;0.40;;;21.00;95.10;;;;;;6254001;28;20045;-83
2022/06/07 18:47:34;;;;;;;0.93;0.25;;;21.00;95.00;;;;;;6252151;28;20055;-83
2022/06/07 18:50:42;;;;;;;1.65;0.45;;;21.00;95.00;;;;;;6251930;28;20179;-81
2022/06/07 18:53:45;;;;;;;;;;;20.90;95.00;;;;;;6252795;28;20053;-82
2022/06/07 18:56:47;;;;;;;5.45;2.25;;;20.80;94.90;;;;;;6252572;28;19921;-83
2022/06/07 18:59:50;;;;;;;1.02;0.63;;;20.60;95.10;;;;;;6253445;28;20045;-82
2022/06/07 19:02:53;;;;;;;1.77;0.57;;;20.40;95.30;;;;;;6231071;28;20046;-82
2022/06/07 19:05:57;;;;;;;1.38;0.40;;;20.30;95.50;;;;;;6236963;28;20144;-83
2022/06/07 19:09:03;;;;;;;2.88;0.68;;;20.10;95.50;;;;;;6255093;28;20061;-84
2022/06/07 19:12:10;;;;;;;1.50;0.63;;;20.00;95.50;;;;;;6254295;28;20049;-83
2022/06/07 19:15:15;;;;;;;6.60;1.10;;;19.90;95.50;;;;;;6255038;28;20421;-86
2022/06/07 19:18:19;;;;;;;2.35;0.55;;;19.80;95.60;;;;;;6252438;28;20124;-84
2022/06/07 19:21:24;;;;;;;0.75;0.45;;;19.70;95.70;;;;;;6248386;28;20069;-84
2022/06/07 19:24:26;;;;;;;1.00;0.60;;;19.70;95.80;;;;;;6254767;28;20080;-86
2022/06/07 19:27:28;;;;;;;2.80;0.90;;;19.70;95.90;;;;;;6254317;28;20064;-85
2022/06/07 19:30:31;;;;;;;9.05;4.80;;;19.70;96.00;;;;;;6254019;28;20092;-86
2022/06/07 19:33:34;;;;;;;5.75;1.35;;;19.80;96.40;;;;;;6256644;28;20045;-83